Time;durP1;ratioP1;P1;durP2;ratioP2;P2;SDS_P1;SDS_P2;PMS_P1;PMS_P2;Temp;Humidity;BMP_temperature;BMP_pressure;BME280_temperature;BME280_humidity;BME280_pressure;Samples;Min_cycle;Max_cycle;Signal;HPM_P1;HPM_P2
2023/06/30 00:02:21;;;;;;;3.03;2.20;;;;;;;21.01;50.48;95934.09;5069128;28;21047;-72
2023/06/30 00:04:48;;;;;;;3.92;2.30;;;;;;;21.04;51.36;95927.78;5069278;28;20515;-72
2023/06/30 00:07:15;;;;;;;5.25;2.95;;;;;;;20.93;50.44;95929.75;5069373;28;20048;-72
2023/06/30 00:09:43;;;;;;;5.32;2.60;;;;;;;20.99;50.59;95928.19;5069549;28;20057;-72
2023/06/30 00:12:10;;;;;;;5.43;2.95;;;;;;;21.02;50.85;95921.84;5068926;28;20123;-72
2023/06/30 00:14:37;;;;;;;4.18;2.40;;;;;;;20.97;50.69;95919.47;5069202;28;20044;-72
2023/06/30 00:17:03;;;;;;;7.07;2.70;;;;;;;20.96;50.61;95912.34;5069062;28;20487;-72
2023/06/30 00:19:30;;;;;;;5.80;2.50;;;;;;;20.99;50.73;95913.56;5070191;28;20047;-72
2023/06/30 00:21:56;;;;;;;3.92;2.40;;;;;;;20.97;50.54;95918.69;5073327;28;20056;-72
2023/06/30 00:24:23;;;;;;;3.38;2.30;;;;;;;20.95;50.49;95919.09;5072875;28;20049;-72
2023/06/30 00:26:51;;;;;;;5.43;2.63;;;;;;;20.86;50.72;95924.22;5073534;28;20041;-72
2023/06/30 00:29:17;;;;;;;5.70;2.90;;;;;;;20.80;51.16;95911.97;5073100;28;20044;-72
2023/06/30 00:31:44;;;;;;;5.78;3.25;;;;;;;20.79;51.89;95918.69;5073385;28;20511;-72
2023/06/30 00:34:10;;;;;;;4.20;2.50;;;;;;;20.79;52.30;95913.16;5072489;28;20098;-72
2023/06/30 00:36:37;;;;;;;7.43;3.38;;;;;;;20.65;52.36;95908.41;5073180;28;20047;-72
2023/06/30 00:39:03;;;;;;;5.82;3.30;;;;;;;20.69;52.68;95908.41;5072833;28;20131;-72
2023/06/30 00:41:30;;;;;;;4.22;2.80;;;;;;;20.69;52.98;95902.88;5072625;28;20044;-72
2023/06/30 00:43:58;;;;;;;5.15;2.83;;;;;;;20.77;53.40;95904.44;5072063;28;21493;-72
2023/06/30 00:46:25;;;;;;;8.18;3.40;;;;;;;20.74;53.78;95894.97;5072338;28;20129;-72
2023/06/30 00:48:52;;;;;;;4.38;3.00;;;;;;;20.71;54.51;95894.97;5072653;28;20041;-72
2023/06/30 00:51:20;;;;;;;5.32;2.88;;;;;;;20.76;54.97;95891.78;5071968;28;20066;-72
2023/06/30 00:53:46;;;;;;;6.15;3.17;;;;;;;20.76;55.00;95880.72;5072913;28;20044;-72
2023/06/30 00:56:13;;;;;;;4.20;2.75;;;;;;;20.74;54.79;95885.88;5072526;28;20500;-72
2023/06/30 00:58:39;;;;;;;5.05;2.85;;;;;;;20.70;54.97;95883.09;5073122;28;20040;-72
2023/06/30 01:01:21;;;;;;;4.43;3.00;;;;;;;20.68;55.52;95879.94;5070935;28;20044;-72
2023/06/30 01:03:56;;;;;;;7.22;3.40;;;;;;;20.55;55.74;95868.47;5069556;28;20059;-72
2023/06/30 01:06:30;;;;;;;4.32;2.55;;;;;;;20.58;54.73;95855.84;5071600;28;20505;-72
2023/06/30 01:09:02;;;;;;;4.95;2.50;;;;;;;20.68;54.52;95857.81;5072250;28;20055;-72
2023/06/30 01:11:29;;;;;;;5.80;2.70;;;;;;;20.70;54.57;95857.41;5072092;28;20048;-72
2023/06/30 01:13:56;;;;;;;4.05;2.75;;;;;;;20.65;54.66;95857.81;5072713;28;20051;-72
2023/06/30 01:16:26;;;;;;;6.07;2.65;;;;;;;20.44;55.03;95855.78;5071508;28;20056;-72
2023/06/30 01:18:58;;;;;;;7.18;2.80;;;;;;;20.34;55.17;95860.91;5071744;28;20041;-72
2023/06/30 01:21:28;;;;;;;7.10;3.10;;;;;;;20.46;54.98;95861.72;5068341;28;20067;-72
2023/06/30 01:23:59;;;;;;;5.20;2.88;;;;;;;20.54;55.08;95857.81;5071986;28;20072;-72
2023/06/30 01:26:26;;;;;;;4.60;2.67;;;;;;;20.54;55.30;95864.13;5072010;28;20056;-72
2023/06/30 01:28:53;;;;;;;6.88;2.97;;;;;;;20.50;55.25;95859.78;5072007;28;20067;-72
2023/06/30 01:31:20;;;;;;;6.03;3.15;;;;;;;20.38;55.60;95849.88;5071449;28;20055;-72
2023/06/30 01:33:48;;;;;;;4.57;2.80;;;;;;;20.40;55.76;95853.03;5072062;28;20039;-72
2023/06/30 01:36:15;;;;;;;5.25;3.03;;;;;;;20.29;56.45;95855.78;5071948;28;20044;-72
2023/06/30 01:38:41;;;;;;;7.85;3.33;;;;;;;20.30;56.90;95849.06;5072316;28;20051;-72
2023/06/30 01:41:08;;;;;;;4.95;3.08;;;;;;;20.41;56.49;95843.56;5071629;28;20040;-72
2023/06/30 01:43:36;;;;;;;6.40;2.55;;;;;;;20.51;56.65;95851.06;5071864;28;20496;-71
2023/06/30 01:46:03;;;;;;;5.72;3.10;;;;;;;20.57;56.33;95859.78;5071506;28;20036;-73
2023/06/30 01:48:30;;;;;;;4.95;2.58;;;;;;;20.56;56.14;95856.22;5072072;28;20052;-72
2023/06/30 01:50:59;;;;;;;4.40;2.70;;;;;;;20.57;55.96;95851.50;5071927;28;20052;-72
2023/06/30 01:53:26;;;;;;;6.13;2.90;;;;;;;20.58;57.20;95842.81;5070462;28;20044;-72
2023/06/30 01:55:55;;;;;;;4.47;2.70;;;;;;;20.56;57.74;95839.63;5072124;28;20040;-72
2023/06/30 01:58:21;;;;;;;4.85;2.90;;;;;;;20.55;58.44;95838.03;5070868;28;20486;-72
2023/06/30 02:00:48;;;;;;;5.65;2.90;;;;;;;20.52;58.48;95838.06;5071438;28;20047;-72
2023/06/30 02:03:14;;;;;;;4.53;3.00;;;;;;;20.52;58.56;95827.00;5071434;28;20043;-72
2023/06/30 02:05:41;;;;;;;4.47;2.95;;;;;;;20.50;58.66;95841.19;5071625;28;20044;-72
2023/06/30 02:08:09;;;;;;;5.90;3.25;;;;;;;20.51;58.67;95831.72;5071218;28;20048;-72
2023/06/30 02:10:35;;;;;;;3.92;2.97;;;;;;;20.50;58.38;95845.94;5071531;28;20044;-72
2023/06/30 02:13:02;;;;;;;4.50;2.83;;;;;;;20.50;58.76;95834.88;5071773;28;20499;-73
2023/06/30 02:15:28;;;;;;;4.53;2.95;;;;;;;20.50;59.02;95832.91;5071643;28;20554;-72
2023/06/30 02:17:55;;;;;;;3.63;2.50;;;;;;;20.49;58.84;95828.56;5070917;28;20479;-72
2023/06/30 02:20:21;;;;;;;4.18;2.80;;;;;;;20.50;59.25;95830.13;5071004;28;20093;-72
2023/06/30 02:22:48;;;;;;;3.72;3.00;;;;;;;20.49;58.79;95823.03;5071829;28;20041;-72
2023/06/30 02:25:15;;;;;;;4.32;3.13;;;;;;;20.45;58.63;95824.97;5069144;28;20047;-72
2023/06/30 02:27:45;;;;;;;3.42;2.70;;;;;;;20.45;58.17;95838.00;5071247;28;20036;-72
2023/06/30 02:30:12;;;;;;;11.20;4.20;;;;;;;20.43;58.54;95835.66;5071057;28;20052;-72
2023/06/30 02:32:40;;;;;;;5.53;3.40;;;;;;;20.32;59.02;95843.16;5072205;28;20560;-72
2023/06/30 02:35:07;;;;;;;5.47;3.47;;;;;;;20.15;59.54;95847.47;5070818;28;20102;-72
2023/06/30 02:37:34;;;;;;;4.25;3.30;;;;;;;20.06;59.87;95853.38;5071396;28;20044;-72
2023/06/30 02:40:00;;;;;;;5.18;3.47;;;;;;;20.08;59.69;95847.44;5071227;28;20051;-72
2023/06/30 02:42:29;;;;;;;11.10;4.78;;;;;;;19.88;59.91;95847.00;5069753;28;20040;-72
2023/06/30 02:44:55;;;;;;;6.25;3.95;;;;;;;19.78;60.31;95850.53;5070668;28;20032;-72
2023/06/30 02:47:22;;;;;;;9.05;5.05;;;;;;;19.46;62.06;95845.63;5070207;28;20053;-72
2023/06/30 02:49:48;;;;;;;7.18;4.85;;;;;;;19.31;62.75;95843.97;5070883;28;20045;-72
2023/06/30 02:52:15;;;;;;;5.97;4.15;;;;;;;19.32;63.08;95837.31;5070348;28;20043;-72
2023/06/30 02:54:41;;;;;;;6.20;4.32;;;;;;;19.39;62.91;95848.38;5070565;28;20051;-72
2023/06/30 02:57:08;;;;;;;5.30;3.83;;;;;;;19.52;62.65;95849.63;5070077;28;20040;-72
2023/06/30 02:59:36;;;;;;;4.53;3.67;;;;;;;19.60;62.46;95842.19;5070931;28;20048;-72
2023/06/30 03:02:02;;;;;;;6.10;4.10;;;;;;;19.63;62.28;95843.38;5070046;28;20079;-73
2023/06/30 03:04:29;;;;;;;6.88;4.50;;;;;;;19.49;61.98;95842.09;5070318;28;20051;-72
2023/06/30 03:06:55;;;;;;;6.78;5.03;;;;;;;19.32;62.77;95833.75;5070588;28;20040;-72
2023/06/30 03:09:22;;;;;;;5.57;4.53;;;;;;;19.31;62.95;95832.94;5070050;28;20399;-72
2023/06/30 03:11:48;;;;;;;8.02;4.95;;;;;;;19.20;63.63;95843.13;5070282;28;20044;-72
2023/06/30 03:14:15;;;;;;;6.07;4.70;;;;;;;19.07;64.71;95842.69;5069620;28;20048;-73
2023/06/30 03:16:42;;;;;;;6.97;4.70;;;;;;;19.11;64.79;95839.97;5069983;28;20491;-72
2023/06/30 03:19:09;;;;;;;8.25;4.90;;;;;;;19.04;65.15;95844.22;5069797;28;20040;-72
2023/06/30 03:21:35;;;;;;;6.28;3.92;;;;;;;19.18;64.68;95845.50;5069906;28;20043;-72
2023/06/30 03:24:02;;;;;;;6.53;3.55;;;;;;;19.27;64.35;95843.19;5069625;28;20044;-72
2023/06/30 03:26:28;;;;;;;6.45;4.25;;;;;;;19.36;64.58;95859.41;5070029;28;20051;-72
2023/06/30 03:28:55;;;;;;;5.93;4.75;;;;;;;19.31;64.89;95855.03;5070357;28;20063;-72
2023/06/30 03:31:22;;;;;;;6.15;5.05;;;;;;;19.31;64.95;95860.53;5069663;28;20079;-72
2023/06/30 03:33:50;;;;;;;10.23;4.70;;;;;;;19.25;65.29;95856.56;5070049;28;20045;-72
2023/06/30 03:36:16;;;;;;;6.70;4.90;;;;;;;19.21;65.80;95853.00;5069811;28;20044;-72
2023/06/30 03:38:43;;;;;;;6.32;4.82;;;;;;;19.28;65.51;95853.84;5072481;28;20041;-72
2023/06/30 03:41:09;;;;;;;6.20;5.22;;;;;;;19.25;65.75;95853.81;5073762;28;20040;-73
2023/06/30 03:43:36;;;;;;;8.75;5.35;;;;;;;19.10;66.54;95844.66;5073588;28;20044;-72
2023/06/30 03:46:02;;;;;;;9.95;5.10;;;;;;;19.21;66.17;95850.25;5073952;28;20051;-72
2023/06/30 03:48:29;;;;;;;6.57;4.97;;;;;;;19.19;66.35;95852.59;5075653;28;20051;-72
2023/06/30 03:50:57;;;;;;;8.35;5.47;;;;;;;19.10;66.70;95852.16;5075672;28;20052;-72
2023/06/30 03:53:23;;;;;;;8.25;5.55;;;;;;;19.15;66.54;95852.56;5073613;28;20048;-72
2023/06/30 03:55:50;;;;;;;6.18;5.35;;;;;;;19.20;66.91;95843.13;5074653;28;20048;-72
2023/06/30 03:58:16;;;;;;;6.43;5.43;;;;;;;19.18;68.47;95835.25;5076016;28;20048;-72
2023/06/30 04:00:43;;;;;;;8.52;5.28;;;;;;;19.18;68.84;95840.00;5074839;28;20479;-72
2023/06/30 04:03:09;;;;;;;11.27;5.80;;;;;;;19.24;69.05;95832.91;5073966;28;20380;-72
2023/06/30 04:05:36;;;;;;;8.38;5.10;;;;;;;19.38;69.45;95848.78;5074107;28;20511;-72
2023/06/30 04:08:04;;;;;;;11.07;6.07;;;;;;;19.40;69.45;95844.44;5074025;28;20399;-73
2023/06/30 04:10:30;;;;;;;9.00;5.35;;;;;;;19.41;69.86;95839.69;5074414;28;20049;-72
2023/06/30 04:12:57;;;;;;;8.35;5.45;;;;;;;19.47;69.56;95849.19;5071434;28;20059;-72
2023/06/30 04:15:23;;;;;;;7.82;4.63;;;;;;;19.59;68.92;95850.84;5069316;28;20044;-72
2023/06/30 04:17:50;;;;;;;6.40;4.50;;;;;;;19.68;68.85;95851.28;5069723;28;20040;-74
2023/06/30 04:20:16;;;;;;;6.38;4.45;;;;;;;19.63;68.74;95854.41;5069113;28;20041;-72
2023/06/30 04:22:43;;;;;;;6.70;5.20;;;;;;;19.65;69.66;95863.13;5069684;28;20044;-72
2023/06/30 04:25:11;;;;;;;6.60;4.95;;;;;;;19.62;70.04;95859.16;5069797;28;20535;-72
2023/06/30 04:27:37;;;;;;;6.97;5.90;;;;;;;19.38;71.43;95860.59;5069665;28;20539;-72
2023/06/30 04:30:05;;;;;;;7.72;5.82;;;;;;;19.37;72.01;95861.78;5069333;28;20049;-72
2023/06/30 04:32:31;;;;;;;8.77;6.28;;;;;;;19.24;72.96;95861.31;5069407;28;20530;-72
2023/06/30 04:34:58;;;;;;;7.38;5.97;;;;;;;19.20;72.89;95851.41;5069566;28;20044;-72
2023/06/30 04:37:28;;;;;;;9.35;6.13;;;;;;;19.19;72.52;95847.09;5069246;28;20165;-72
2023/06/30 04:39:55;;;;;;;9.77;6.70;;;;;;;19.11;71.85;95856.53;5069630;28;20257;-72
2023/06/30 04:42:23;;;;;;;6.68;5.72;;;;;;;19.12;70.79;95852.56;5068325;28;20056;-72
2023/06/30 04:44:50;;;;;;;13.05;6.65;;;;;;;19.06;71.65;95843.88;5069361;28;20048;-72
2023/06/30 04:47:16;;;;;;;8.57;6.13;;;;;;;19.21;71.38;95850.25;5068830;28;20037;-72
2023/06/30 04:49:43;;;;;;;7.03;5.40;;;;;;;19.22;71.43;95846.31;5069749;28;20064;-72
2023/06/30 04:52:10;;;;;;;7.68;6.45;;;;;;;19.17;72.32;95843.94;5068342;28;20051;-72
2023/06/30 04:54:36;;;;;;;6.10;5.20;;;;;;;19.19;72.56;95833.28;5069360;28;20499;-73
2023/06/30 04:57:03;;;;;;;7.35;6.05;;;;;;;19.18;73.27;95832.50;5068902;28;20051;-72
2023/06/30 04:59:31;;;;;;;7.18;5.35;;;;;;;19.20;75.21;95810.03;5069143;28;20048;-72
2023/06/30 05:01:57;;;;;;;10.63;8.25;;;;;;;19.00;77.71;95809.53;5068971;28;20044;-72
2023/06/30 05:04:24;;;;;;;8.40;7.43;;;;;;;18.99;78.02;95800.44;5068851;28;20056;-72
2023/06/30 05:06:50;;;;;;;10.18;7.05;;;;;;;18.88;81.34;95805.13;5072104;28;20049;-72
2023/06/30 05:09:18;;;;;;;12.70;8.70;;;;;;;18.85;84.02;95805.91;5072483;28;20044;-72
2023/06/30 05:11:44;;;;;;;13.48;9.02;;;;;;;18.75;85.67;95809.38;5073155;28;20048;-72
2023/06/30 05:14:11;;;;;;;13.80;9.75;;;;;;;18.61;88.49;95806.50;5070327;28;20068;-74
2023/06/30 05:16:38;;;;;;;11.15;7.68;;;;;;;18.67;88.74;95799.44;5070775;28;20044;-72
2023/06/30 05:19:05;;;;;;;10.52;7.80;;;;;;;18.75;88.89;95806.63;5069814;28;20757;-73
2023/06/30 05:21:32;;;;;;;14.43;9.45;;;;;;;18.66;89.92;95798.66;5070380;28;20037;-73
2023/06/30 05:23:58;;;;;;;12.02;8.30;;;;;;;18.76;90.00;95808.22;5070133;28;20399;-73
2023/06/30 05:26:25;;;;;;;13.27;8.98;;;;;;;18.83;90.34;95808.25;5068779;28;20059;-73
2023/06/30 05:28:51;;;;;;;18.58;11.43;;;;;;;18.79;91.59;95799.16;5070814;28;20040;-72
2023/06/30 05:31:18;;;;;;;11.38;9.60;;;;;;;18.86;91.53;95807.47;5070263;28;20444;-73
2023/06/30 05:33:45;;;;;;;14.18;10.05;;;;;;;18.91;91.64;95807.13;5072497;28;20040;-73
2023/06/30 05:36:12;;;;;;;11.65;8.52;;;;;;;18.97;92.19;95816.63;5072070;28;20052;-73
2023/06/30 05:38:38;;;;;;;13.60;10.05;;;;;;;19.02;91.89;95813.50;5072408;28;20044;-73
2023/06/30 05:41:05;;;;;;;15.10;8.40;;;;;;;19.06;91.50;95813.50;5071047;28;20043;-73
2023/06/30 05:43:31;;;;;;;13.68;8.57;;;;;;;19.17;91.03;95810.81;5071980;28;20491;-72
2023/06/30 05:45:58;;;;;;;14.32;8.90;;;;;;;19.22;91.07;95805.72;5072178;28;20053;-72
2023/06/30 05:48:24;;;;;;;11.35;9.02;;;;;;;19.31;90.57;95810.84;5071749;28;20041;-73
2023/06/30 05:50:52;;;;;;;11.32;8.75;;;;;;;19.34;90.35;95812.84;5072041;28;20645;-73
2023/06/30 05:53:19;;;;;;;11.93;7.65;;;;;;;19.37;88.92;95819.56;5071890;28;20127;-73
2023/06/30 05:55:45;;;;;;;12.45;8.40;;;;;;;19.40;88.33;95822.34;5072042;28;20519;-73
2023/06/30 05:58:11;;;;;;;12.30;9.20;;;;;;;19.44;88.32;95825.13;5071256;28;20415;-73
2023/06/30 06:00:38;;;;;;;14.23;9.10;;;;;;;19.41;87.67;95825.88;5071899;28;20036;-73
2023/06/30 06:03:04;;;;;;;9.15;7.80;;;;;;;19.45;87.45;95830.25;5071393;28;20647;-73
2023/06/30 06:05:31;;;;;;;14.90;9.95;;;;;;;19.40;87.83;95833.38;5071767;28;20503;-73
2023/06/30 06:07:59;;;;;;;11.45;7.97;;;;;;;19.42;86.61;95836.56;5071680;28;20048;-72
2023/06/30 06:10:25;;;;;;;10.50;7.85;;;;;;;19.43;86.30;95840.91;5070972;28;20043;-73
2023/06/30 06:12:52;;;;;;;12.77;9.90;;;;;;;19.38;86.73;95846.00;5071250;28;20051;-73
2023/06/30 06:15:19;;;;;;;10.73;8.32;;;;;;;19.43;86.01;95851.16;5070756;28;20209;-72
2023/06/30 06:17:45;;;;;;;10.90;8.30;;;;;;;19.49;85.48;95850.41;5070589;28;20044;-72
2023/06/30 06:20:12;;;;;;;13.05;10.48;;;;;;;19.41;87.68;95847.97;5070695;28;20127;-73
2023/06/30 06:22:38;;;;;;;13.48;9.60;;;;;;;19.45;87.20;95849.59;5071413;28;20036;-72
2023/06/30 06:25:08;;;;;;;9.15;8.00;;;;;;;19.58;87.23;95852.03;5071072;28;20032;-73
2023/06/30 06:27:35;;;;;;;13.50;8.48;;;;;;;19.50;87.53;95840.94;5071113;28;20048;-72
2023/06/30 06:30:01;;;;;;;9.98;7.95;;;;;;;19.55;86.55;95843.31;5070464;28;20044;-73
2023/06/30 06:32:28;;;;;;;10.50;8.65;;;;;;;19.57;86.98;95840.16;5071216;28;20037;-72
2023/06/30 06:34:54;;;;;;;12.55;9.00;;;;;;;19.59;87.41;95842.56;5070957;28;20044;-72
2023/06/30 06:37:21;;;;;;;11.57;7.90;;;;;;;19.66;88.38;95848.13;5070629;28;20053;-72
2023/06/30 06:39:47;;;;;;;11.75;8.50;;;;;;;19.68;88.76;95849.34;5070852;28;20650;-72
2023/06/30 06:42:15;;;;;;;13.30;9.35;;;;;;;19.70;88.65;95848.94;5070392;28;20048;-72
2023/06/30 06:44:41;;;;;;;12.20;8.43;;;;;;;19.72;87.91;95852.09;5070870;28;20051;-73
2023/06/30 06:47:45;;;;;;;11.25;8.45;;;;;;;19.74;87.29;95847.75;5070177;28;20048;-72
2023/06/30 06:50:12;;;;;;;10.93;8.18;;;;;;;19.77;86.61;95846.19;5069976;28;20048;-72
2023/06/30 06:52:38;;;;;;;9.75;8.00;;;;;;;19.80;86.81;95856.47;5070672;28;20068;-72
2023/06/30 06:55:06;;;;;;;11.70;8.52;;;;;;;19.79;87.62;95841.88;5070431;28;20045;-73
2023/06/30 06:57:33;;;;;;;18.48;11.35;;;;;;;19.76;87.68;95847.38;5070735;28;20059;-72
2023/06/30 07:00:00;;;;;;;10.35;8.50;;;;;;;19.76;87.18;95836.31;5070426;28;20052;-72
2023/06/30 07:02:26;;;;;;;10.40;8.55;;;;;;;19.79;86.64;95841.06;5070068;28;20485;-72
2023/06/30 07:04:53;;;;;;;11.88;8.20;;;;;;;19.78;86.55;95842.22;5070850;28;20047;-72
2023/06/30 07:07:19;;;;;;;14.48;11.43;;;;;;;19.74;86.91;95844.22;5069830;28;20053;-72
2023/06/30 07:09:46;;;;;;;10.40;8.75;;;;;;;19.78;85.95;95837.53;5070367;28;20039;-72
2023/06/30 07:12:12;;;;;;;11.50;8.75;;;;;;;19.81;85.57;95838.69;5069855;28;20048;-72
2023/06/30 07:14:40;;;;;;;10.82;9.18;;;;;;;19.84;85.67;95837.94;5070075;28;20057;-72
2023/06/30 07:17:06;;;;;;;11.90;8.82;;;;;;;19.86;86.88;95841.09;5069604;28;20051;-73
2023/06/30 07:19:33;;;;;;;12.93;9.60;;;;;;;19.88;87.05;95838.72;5070337;28;20047;-73
2023/06/30 07:21:59;;;;;;;12.02;10.00;;;;;;;19.88;87.32;95838.72;5070092;28;20037;-72
2023/06/30 07:24:26;;;;;;;11.40;9.50;;;;;;;19.89;87.14;95845.84;5069742;28;20052;-73
2023/06/30 07:26:53;;;;;;;12.68;9.52;;;;;;;19.90;87.46;95847.41;5070183;28;20051;-72
2023/06/30 07:29:19;;;;;;;11.65;9.60;;;;;;;19.92;87.72;95838.72;5069369;28;20491;-72
2023/06/30 07:31:47;;;;;;;12.50;10.32;;;;;;;19.92;88.07;95834.00;5069824;28;20041;-72
2023/06/30 07:34:14;;;;;;;15.02;10.57;;;;;;;19.84;86.35;95840.69;5069666;28;20041;-73
2023/06/30 07:36:41;;;;;;;13.80;10.35;;;;;;;19.83;85.52;95839.09;5070216;28;20119;-73
2023/06/30 07:39:07;;;;;;;15.85;11.73;;;;;;;19.78;85.77;95836.72;5069549;28;20048;-73
2023/06/30 07:41:34;;;;;;;14.60;10.98;;;;;;;19.71;85.74;95833.94;5069858;28;20381;-73
2023/06/30 07:44:01;;;;;;;11.27;8.98;;;;;;;19.74;85.38;95842.25;5069946;28;20045;-73
2023/06/30 07:46:28;;;;;;;11.68;9.90;;;;;;;19.69;85.61;95836.31;5069510;28;20067;-72
2023/06/30 07:48:56;;;;;;;14.70;11.55;;;;;;;19.62;86.55;95841.78;5069856;28;20399;-72
2023/06/30 07:51:22;;;;;;;12.23;9.30;;;;;;;19.67;86.36;95839.44;5068969;28;20047;-72
2023/06/30 07:53:49;;;;;;;13.50;10.85;;;;;;;19.66;86.55;95853.66;5069772;28;20411;-72
2023/06/30 07:56:15;;;;;;;12.82;9.85;;;;;;;19.69;86.84;95850.13;5069446;28;20045;-73
2023/06/30 07:58:42;;;;;;;15.10;9.68;;;;;;;19.73;86.92;95864.72;5069916;28;20041;-73
2023/06/30 08:01:09;;;;;;;16.75;11.65;;;;;;;19.66;87.50;95861.94;5069178;28;20048;-73
2023/06/30 08:03:35;;;;;;;16.75;12.43;;;;;;;19.43;88.34;95867.72;5069971;28;20419;-73
2023/06/30 08:06:03;;;;;;;15.50;11.30;;;;;;;19.44;88.55;95864.56;5069383;28;20051;-73
2023/06/30 08:08:30;;;;;;;13.60;11.25;;;;;;;19.46;88.38;95878.78;5069507;28;20057;-73
2023/06/30 08:10:57;;;;;;;17.13;13.18;;;;;;;19.34;89.00;95876.34;5069463;28;20056;-73
2023/06/30 08:13:23;;;;;;;14.82;10.43;;;;;;;19.47;88.65;95880.38;5069202;28;20056;-73
2023/06/30 08:15:50;;;;;;;14.85;11.60;;;;;;;19.51;89.02;95889.44;5062032;28;20459;-72
2023/06/30 08:18:17;;;;;;;19.23;13.35;;;;;;;19.27;90.34;95884.59;5069153;28;20044;-73
2023/06/30 08:20:43;;;;;;;14.73;11.02;;;;;;;19.42;90.25;95889.03;5069630;28;20049;-73
2023/06/30 08:23:12;;;;;;;16.23;12.00;;;;;;;19.35;91.31;95883.44;5069148;28;20044;-73
2023/06/30 08:25:39;;;;;;;19.25;13.52;;;;;;;19.13;92.13;95887.28;5069899;28;20048;-73
2023/06/30 08:28:05;;;;;;;16.90;13.93;;;;;;;19.16;93.43;95878.22;5069215;28;20048;-73
2023/06/30 08:30:31;;;;;;;16.65;13.80;;;;;;;18.97;93.96;95885.59;5069501;28;20055;-73
2023/06/30 08:32:58;;;;;;;15.93;12.00;;;;;;;19.15;94.22;95884.91;5070475;28;20044;-73
2023/06/30 08:35:24;;;;;;;16.67;14.48;;;;;;;19.03;95.81;95894.31;5070759;28;20036;-73
2023/06/30 08:37:51;;;;;;;21.27;15.98;;;;;;;18.86;97.19;95895.75;5070920;28;20047;-73
2023/06/30 08:40:25;;;;;;;16.58;14.77;;;;;;;18.86;96.88;95887.47;5070890;28;20487;-73
2023/06/30 08:42:53;;;;;;;19.10;15.82;;;;;;;18.84;97.57;95892.56;5075002;28;20040;-73
2023/06/30 08:45:24;;;;;;;23.27;16.75;;;;;;;18.76;99.05;95896.47;5076192;28;20091;-73
2023/06/30 08:47:52;;;;;;;20.75;17.08;;;;;;;18.79;99.22;95895.69;5080986;28;20049;-73
2023/06/30 08:50:20;;;;;;;22.60;18.10;;;;;;;18.86;99.86;95895.75;5079585;28;20048;-73
2023/06/30 08:52:48;;;;;;;21.60;16.83;;;;;;;18.90;99.31;95891.06;5081478;28;20047;-73
2023/06/30 08:55:15;;;;;;;23.10;18.58;;;;;;;18.95;99.66;95892.66;5081087;28;20045;-73
2023/06/30 08:57:43;;;;;;;22.08;19.05;;;;;;;18.93;100.00;95890.28;5080913;28;20047;-73
2023/06/30 09:00:11;;;;;;;25.75;18.10;;;;;;;18.99;99.54;95894.25;5080566;28;20491;-73
2023/06/30 09:02:38;;;;;;;25.23;18.98;;;;;;;18.97;99.18;95891.09;5079211;28;20053;-73
2023/06/30 09:05:06;;;;;;;23.35;18.65;;;;;;;19.06;98.75;95895.50;5076431;28;20044;-73
2023/06/30 09:07:39;;;;;;;20.23;15.82;;;;;;;19.23;98.34;95897.59;5075443;28;20103;-73
2023/06/30 09:10:09;;;;;;;;;;;;;;;19.36;98.92;95898.03;5075552;28;20055;-73
2023/06/30 09:12:36;;;;;;;16.88;14.18;;;;;;;19.49;98.37;95883.53;5073820;28;19928;-73
2023/06/30 09:15:06;;;;;;;19.48;15.95;;;;;;;19.60;98.43;95872.56;5072907;28;20388;-73
2023/06/30 09:17:32;;;;;;;23.08;18.38;;;;;;;19.47;97.45;95885.91;5073118;28;20045;-72
2023/06/30 09:19:59;;;;;;;22.23;17.77;;;;;;;19.58;95.92;95885.16;5073120;28;20075;-73
2023/06/30 09:22:26;;;;;;;20.00;14.75;;;;;;;19.70;95.35;95884.84;5072357;28;20040;-73
2023/06/30 09:24:52;;;;;;;21.17;18.45;;;;;;;19.66;96.52;95889.56;5073059;28;20044;-72
2023/06/30 09:27:19;;;;;;;26.35;18.52;;;;;;;19.69;96.92;95881.28;5072745;28;20041;-72
2023/06/30 09:29:53;;;;;;;24.40;19.73;;;;;;;19.63;95.91;95898.59;5072859;28;20037;-72
2023/06/30 09:32:26;;;;;;;20.20;16.75;;;;;;;19.81;95.05;95882.91;5072283;28;20059;-73
2023/06/30 09:34:54;;;;;;;26.25;19.65;;;;;;;19.65;93.90;95874.16;5072719;28;20048;-73
2023/06/30 09:37:21;;;;;;;24.23;19.20;;;;;;;19.46;93.25;95887.06;5072040;28;20050;-73
2023/06/30 09:39:51;;;;;;;29.70;21.30;;;;;;;19.55;95.05;95887.50;5072167;28;20473;-74
2023/06/30 09:42:18;;;;;;;24.52;20.08;;;;;;;19.66;95.60;95875.75;5071527;28;20076;-72
2023/06/30 09:44:44;;;;;;;25.50;21.02;;;;;;;19.76;95.97;95875.00;5072105;28;20052;-73
2023/06/30 09:47:12;;;;;;;25.80;19.17;;;;;;;19.52;92.96;95877.25;5071571;28;20040;-73
2023/06/30 09:49:43;;;;;;;23.92;18.30;;;;;;;19.70;93.14;95877.34;5071894;28;20053;-72
2023/06/30 09:52:10;;;;;;;25.50;19.85;;;;;;;19.85;93.50;95869.91;5071473;28;20041;-73
2023/06/30 09:54:37;;;;;;;24.35;18.58;;;;;;;19.77;89.46;95865.53;5071940;28;20131;-72
2023/06/30 09:57:05;;;;;;;25.17;18.60;;;;;;;19.90;91.18;95872.28;5071641;28;20048;-73
2023/06/30 09:59:32;;;;;;;21.48;16.85;;;;;;;20.19;92.23;95869.59;5072132;28;20123;-72
2023/06/30 10:01:59;;;;;;;25.60;20.50;;;;;;;20.34;93.31;95865.66;5071405;28;20059;-72
2023/06/30 10:04:28;;;;;;;23.02;19.23;;;;;;;20.31;93.26;95878.31;5071499;28;20036;-73
2023/06/30 10:06:55;;;;;;;21.63;17.88;;;;;;;20.42;94.14;95872.78;5071812;28;20405;-73
2023/06/30 10:09:24;;;;;;;24.20;19.67;;;;;;;20.57;92.79;95870.88;5071019;28;20392;-73
2023/06/30 10:11:53;;;;;;;25.58;20.80;;;;;;;20.58;90.31;95878.75;5071743;28;20048;-73
2023/06/30 10:14:21;;;;;;;22.58;18.33;;;;;;;20.59;88.86;95871.25;5071264;28;20071;-73
2023/06/30 10:16:48;;;;;;;22.75;17.33;;;;;;;20.59;87.52;95868.47;5071418;28;20052;-73
2023/06/30 10:19:15;;;;;;;23.75;17.00;;;;;;;20.51;85.42;95866.88;5071241;28;20077;-73
2023/06/30 10:21:42;;;;;;;22.38;17.15;;;;;;;20.47;82.75;95863.34;5071519;28;20040;-73
2023/06/30 10:24:11;;;;;;;19.50;14.48;;;;;;;20.32;80.63;95859.75;5070894;28;20052;-73
2023/06/30 10:26:39;;;;;;;21.75;15.38;;;;;;;20.28;81.18;95867.22;5071718;28;20067;-72
2023/06/30 10:29:06;;;;;;;20.00;13.82;;;;;;;20.38;80.16;95865.66;5070764;28;20040;-74
2023/06/30 10:31:34;;;;;;;22.98;13.82;;;;;;;20.32;77.39;95856.97;5076848;28;20036;-73
2023/06/30 10:34:01;;;;;;;21.23;14.30;;;;;;;20.34;78.11;95854.59;5077655;28;20055;-73
2023/06/30 10:36:28;;;;;;;16.63;12.07;;;;;;;20.28;75.27;95856.97;5076238;28;20044;-72
2023/06/30 10:38:55;;;;;;;21.13;14.35;;;;;;;20.23;78.04;95871.19;5075136;28;20067;-72
2023/06/30 10:41:23;;;;;;;21.55;13.35;;;;;;;20.23;79.75;95868.41;5075552;28;20059;-72
2023/06/30 10:44:08;;;;;;;19.75;13.02;;;;;;;20.31;78.53;95866.47;5077504;28;20038;-73
2023/06/30 10:46:47;;;;;;;17.48;11.30;;;;;;;20.40;77.66;95877.91;5070571;28;20041;-72
2023/06/30 10:49:18;;;;;;;20.13;14.20;;;;;;;20.45;80.25;95866.47;5077105;28;20082;-73
2023/06/30 10:51:46;;;;;;;23.05;13.40;;;;;;;20.44;79.06;95870.41;5076051;28;20040;-73
2023/06/30 10:54:20;;;;;;;18.40;11.48;;;;;;;20.58;78.63;95866.91;5075619;28;20038;-73
2023/06/30 10:56:48;;;;;;;17.50;12.60;;;;;;;20.63;79.01;95862.97;5076041;28;20131;-72
2023/06/30 10:59:23;;;;;;;22.48;13.65;;;;;;;20.69;77.63;95859.41;5074725;28;20415;-73
2023/06/30 11:02:15;;;;;;;17.05;12.13;;;;;;;20.81;77.99;95860.97;5076226;28;20643;-73
2023/06/30 11:04:42;;;;;;;16.73;11.57;;;;;;;20.57;74.24;95857.81;5051050;28;20475;-73
2023/06/30 11:07:10;;;;;;;15.32;10.40;;;;;;;20.57;73.43;95857.03;5050105;28;20047;-74
2023/06/30 11:09:56;;;;;;;14.02;9.15;;;;;;;20.69;73.97;95851.09;5050561;28;20094;-73
2023/06/30 11:12:25;;;;;;;11.48;8.00;;;;;;;20.74;71.78;95852.69;5049947;28;20041;-73
2023/06/30 11:14:53;;;;;;;13.45;8.02;;;;;;;20.80;70.35;95854.63;5050652;28;20041;-73
2023/06/30 11:17:20;;;;;;;13.48;8.40;;;;;;;20.90;71.29;95852.28;5049791;28;20056;-73
2023/06/30 11:19:59;;;;;;;10.80;7.90;;;;;;;20.83;69.37;95847.53;5050232;28;20070;-73
2023/06/30 11:22:26;;;;;;;11.27;7.50;;;;;;;21.02;68.69;95849.06;5049952;28;20095;-73
2023/06/30 11:24:53;;;;;;;14.73;8.15;;;;;;;20.90;66.66;95847.53;5050209;28;20055;-73
2023/06/30 11:27:20;;;;;;;9.57;6.65;;;;;;;21.04;68.24;95852.25;5049566;28;20389;-73
2023/06/30 11:29:49;;;;;;;11.32;7.75;;;;;;;21.16;70.27;95846.28;5050352;28;20118;-74